sensor_id;sensor_type;location;lat;lon;timestamp;temperature;humidity
70986;DHT22;58645;43.068;25.610;2023-02-26T00:01:40;14.30;65.30
70986;DHT22;58645;43.068;25.610;2023-02-26T00:04:06;14.40;65.10
70986;DHT22;58645;43.068;25.610;2023-02-26T00:06:35;14.50;64.20
70986;DHT22;58645;43.068;25.610;2023-02-26T00:09:02;14.60;63.80
70986;DHT22;58645;43.068;25.610;2023-02-26T00:11:29;14.60;62.90
70986;DHT22;58645;43.068;25.610;2023-02-26T00:13:55;14.70;62.70
70986;DHT22;58645;43.068;25.610;2023-02-26T00:16:30;14.80;61.90
70986;DHT22;58645;43.068;25.610;2023-02-26T00:18:59;14.90;61.40
70986;DHT22;58645;43.068;25.610;2023-02-26T00:21:27;14.90;60.70
70986;DHT22;58645;43.068;25.610;2023-02-26T00:23:53;15.00;60.90
70986;DHT22;58645;43.068;25.610;2023-02-26T00:26:20;15.00;61.30
70986;DHT22;58645;43.068;25.610;2023-02-26T00:28:46;14.90;61.40
70986;DHT22;58645;43.068;25.610;2023-02-26T00:31:14;14.90;61.40
70986;DHT22;58645;43.068;25.610;2023-02-26T00:33:40;14.90;61.30
70986;DHT22;58645;43.068;25.610;2023-02-26T00:36:41;14.90;62.20
70986;DHT22;58645;43.068;25.610;2023-02-26T00:41:57;14.70;63.70
70986;DHT22;58645;43.068;25.610;2023-02-26T00:44:23;14.60;64.10
70986;DHT22;58645;43.068;25.610;2023-02-26T00:47:09;14.60;64.30
70986;DHT22;58645;43.068;25.610;2023-02-26T00:50:04;14.60;64.50
70986;DHT22;58645;43.068;25.610;2023-02-26T00:52:43;14.50;64.90
70986;DHT22;58645;43.068;25.610;2023-02-26T00:55:11;14.40;65.10
70986;DHT22;58645;43.068;25.610;2023-02-26T00:57:37;14.40;65.80
70986;DHT22;58645;43.068;25.610;2023-02-26T01:00:04;14.30;66.20
70986;DHT22;58645;43.068;25.610;2023-02-26T01:02:36;14.30;66.50
70986;DHT22;58645;43.068;25.610;2023-02-26T01:05:02;14.30;66.20
70986;DHT22;58645;43.068;25.610;2023-02-26T01:07:28;14.30;66.40
70986;DHT22;58645;43.068;25.610;2023-02-26T01:09:57;14.30;66.50
70986;DHT22;58645;43.068;25.610;2023-02-26T01:12:23;14.20;66.70
70986;DHT22;58645;43.068;25.610;2023-02-26T01:14:49;14.20;66.70
70986;DHT22;58645;43.068;25.610;2023-02-26T01:17:20;14.20;66.20
70986;DHT22;58645;43.068;25.610;2023-02-26T01:25:20;14.30;64.30
70986;DHT22;58645;43.068;25.610;2023-02-26T01:27:46;14.40;63.40
70986;DHT22;58645;43.068;25.610;2023-02-26T01:30:13;14.50;63.40
70986;DHT22;58645;43.068;25.610;2023-02-26T01:35:41;14.50;63.90
70986;DHT22;58645;43.068;25.610;2023-02-26T01:38:19;14.50;63.90
70986;DHT22;58645;43.068;25.610;2023-02-26T01:49:00;14.60;63.60
70986;DHT22;58645;43.068;25.610;2023-02-26T01:52:06;14.60;62.50
70986;DHT22;58645;43.068;25.610;2023-02-26T01:54:36;14.70;61.60
70986;DHT22;58645;43.068;25.610;2023-02-26T01:59:35;14.80;61.70
70986;DHT22;58645;43.068;25.610;2023-02-26T02:02:04;14.80;61.20
70986;DHT22;58645;43.068;25.610;2023-02-26T02:04:31;14.90;61.00
70986;DHT22;58645;43.068;25.610;2023-02-26T02:06:59;14.90;60.40
70986;DHT22;58645;43.068;25.610;2023-02-26T02:09:25;15.00;59.70
70986;DHT22;58645;43.068;25.610;2023-02-26T02:11:55;15.00;59.40
70986;DHT22;58645;43.068;25.610;2023-02-26T02:23:09;15.40;57.50
70986;DHT22;58645;43.068;25.610;2023-02-26T02:28:24;15.50;57.20
70986;DHT22;58645;43.068;25.610;2023-02-26T02:31:09;15.50;57.40
70986;DHT22;58645;43.068;25.610;2023-02-26T02:34:02;15.40;58.40
70986;DHT22;58645;43.068;25.610;2023-02-26T02:36:32;15.30;58.70
70986;DHT22;58645;43.068;25.610;2023-02-26T02:39:05;15.40;58.00
70986;DHT22;58645;43.068;25.610;2023-02-26T02:41:38;15.30;59.50
70986;DHT22;58645;43.068;25.610;2023-02-26T02:44:10;15.20;60.20
70986;DHT22;58645;43.068;25.610;2023-02-26T02:46:39;15.10;61.00
70986;DHT22;58645;43.068;25.610;2023-02-26T02:49:12;15.00;61.80
70986;DHT22;58645;43.068;25.610;2023-02-26T02:52:14;15.00;61.70
70986;DHT22;58645;43.068;25.610;2023-02-26T02:54:47;15.00;61.20
70986;DHT22;58645;43.068;25.610;2023-02-26T02:57:33;14.90;62.00
70986;DHT22;58645;43.068;25.610;2023-02-26T03:00:06;14.90;62.10
70986;DHT22;58645;43.068;25.610;2023-02-26T03:02:51;14.90;61.50
70986;DHT22;58645;43.068;25.610;2023-02-26T03:05:19;14.90;61.50
70986;DHT22;58645;43.068;25.610;2023-02-26T03:07:53;15.00;61.30
70986;DHT22;58645;43.068;25.610;2023-02-26T03:10:20;15.00;61.20
70986;DHT22;58645;43.068;25.610;2023-02-26T03:12:45;15.10;60.70
70986;DHT22;58645;43.068;25.610;2023-02-26T03:15:12;15.10;60.70
70986;DHT22;58645;43.068;25.610;2023-02-26T03:28:53;15.20;60.20
70986;DHT22;58645;43.068;25.610;2023-02-26T03:31:34;15.20;60.80
70986;DHT22;58645;43.068;25.610;2023-02-26T03:34:33;15.10;61.30
70986;DHT22;58645;43.068;25.610;2023-02-26T03:39:42;15.00;62.30
70986;DHT22;58645;43.068;25.610;2023-02-26T03:44:51;14.90;63.60
70986;DHT22;58645;43.068;25.610;2023-02-26T03:47:18;14.80;63.90
70986;DHT22;58645;43.068;25.610;2023-02-26T03:49:58;14.80;64.20
70986;DHT22;58645;43.068;25.610;2023-02-26T03:52:27;14.80;64.40
70986;DHT22;58645;43.068;25.610;2023-02-26T03:55:05;14.80;64.30
70986;DHT22;58645;43.068;25.610;2023-02-26T03:57:33;14.80;64.80
70986;DHT22;58645;43.068;25.610;2023-02-26T03:59:58;14.80;64.50
70986;DHT22;58645;43.068;25.610;2023-02-26T04:02:29;14.80;64.30
70986;DHT22;58645;43.068;25.610;2023-02-26T04:05:02;14.80;64.40
70986;DHT22;58645;43.068;25.610;2023-02-26T04:07:29;14.80;64.50
70986;DHT22;58645;43.068;25.610;2023-02-26T04:09:55;14.80;64.80
70986;DHT22;58645;43.068;25.610;2023-02-26T04:12:25;14.80;64.80
70986;DHT22;58645;43.068;25.610;2023-02-26T04:14:53;14.90;64.70
70986;DHT22;58645;43.068;25.610;2023-02-26T04:17:19;14.90;64.80
70986;DHT22;58645;43.068;25.610;2023-02-26T04:19:44;14.90;64.90
70986;DHT22;58645;43.068;25.610;2023-02-26T04:22:10;14.90;65.00
70986;DHT22;58645;43.068;25.610;2023-02-26T04:24:36;14.90;64.90
70986;DHT22;58645;43.068;25.610;2023-02-26T04:27:02;14.90;64.70
70986;DHT22;58645;43.068;25.610;2023-02-26T04:29:28;14.90;64.70
70986;DHT22;58645;43.068;25.610;2023-02-26T04:31:54;14.90;64.50
70986;DHT22;58645;43.068;25.610;2023-02-26T04:34:20;14.90;64.90
70986;DHT22;58645;43.068;25.610;2023-02-26T04:36:45;14.90;65.90
70986;DHT22;58645;43.068;25.610;2023-02-26T04:39:11;14.80;66.80
70986;DHT22;58645;43.068;25.610;2023-02-26T04:41:37;14.80;67.00
70986;DHT22;58645;43.068;25.610;2023-02-26T04:44:03;14.80;67.90
70986;DHT22;58645;43.068;25.610;2023-02-26T04:46:30;14.80;68.40
70986;DHT22;58645;43.068;25.610;2023-02-26T04:48:56;14.70;68.80
70986;DHT22;58645;43.068;25.610;2023-02-26T04:51:22;14.70;69.40
70986;DHT22;58645;43.068;25.610;2023-02-26T04:53:48;14.60;69.90
70986;DHT22;58645;43.068;25.610;2023-02-26T04:56:14;14.60;70.40
70986;DHT22;58645;43.068;25.610;2023-02-26T04:58:39;14.60;70.60
70986;DHT22;58645;43.068;25.610;2023-02-26T05:01:05;14.60;70.90
70986;DHT22;58645;43.068;25.610;2023-02-26T05:03:31;14.60;71.30
70986;DHT22;58645;43.068;25.610;2023-02-26T05:05:57;14.60;71.40
70986;DHT22;58645;43.068;25.610;2023-02-26T05:08:23;14.50;71.70
70986;DHT22;58645;43.068;25.610;2023-02-26T05:10:50;14.50;71.90
70986;DHT22;58645;43.068;25.610;2023-02-26T05:13:17;14.50;72.30
70986;DHT22;58645;43.068;25.610;2023-02-26T05:15:43;14.50;72.30
70986;DHT22;58645;43.068;25.610;2023-02-26T05:18:09;14.50;72.30
70986;DHT22;58645;43.068;25.610;2023-02-26T05:20:35;14.50;72.70
70986;DHT22;58645;43.068;25.610;2023-02-26T05:23:01;14.50;73.00
70986;DHT22;58645;43.068;25.610;2023-02-26T05:25:26;14.50;73.40
70986;DHT22;58645;43.068;25.610;2023-02-26T05:27:52;14.50;73.40
70986;DHT22;58645;43.068;25.610;2023-02-26T05:30:18;14.50;73.40
70986;DHT22;58645;43.068;25.610;2023-02-26T05:32:44;14.50;73.30
70986;DHT22;58645;43.068;25.610;2023-02-26T05:35:10;14.50;73.30
70986;DHT22;58645;43.068;25.610;2023-02-26T05:37:37;14.60;73.30
70986;DHT22;58645;43.068;25.610;2023-02-26T05:40:04;14.60;73.30
70986;DHT22;58645;43.068;25.610;2023-02-26T05:42:31;14.60;73.00
70986;DHT22;58645;43.068;25.610;2023-02-26T05:44:56;14.70;73.20
70986;DHT22;58645;43.068;25.610;2023-02-26T05:47:22;14.60;73.10
70986;DHT22;58645;43.068;25.610;2023-02-26T05:49:48;14.70;73.10
70986;DHT22;58645;43.068;25.610;2023-02-26T05:52:14;14.70;73.10
70986;DHT22;58645;43.068;25.610;2023-02-26T05:54:40;14.70;73.10
70986;DHT22;58645;43.068;25.610;2023-02-26T05:57:06;14.70;73.00
70986;DHT22;58645;43.068;25.610;2023-02-26T05:59:32;14.80;72.90
70986;DHT22;58645;43.068;25.610;2023-02-26T06:01:58;14.80;73.10
70986;DHT22;58645;43.068;25.610;2023-02-26T06:04:24;14.80;73.10
70986;DHT22;58645;43.068;25.610;2023-02-26T06:06:49;14.80;73.00
70986;DHT22;58645;43.068;25.610;2023-02-26T06:09:15;14.80;73.30
70986;DHT22;58645;43.068;25.610;2023-02-26T06:11:41;14.80;73.70
70986;DHT22;58645;43.068;25.610;2023-02-26T06:14:07;14.80;74.00
70986;DHT22;58645;43.068;25.610;2023-02-26T06:16:32;14.80;74.20
70986;DHT22;58645;43.068;25.610;2023-02-26T06:19:01;14.80;74.50
70986;DHT22;58645;43.068;25.610;2023-02-26T06:21:27;14.80;75.10
70986;DHT22;58645;43.068;25.610;2023-02-26T06:23:52;14.70;75.80
70986;DHT22;58645;43.068;25.610;2023-02-26T06:26:18;14.70;76.30
70986;DHT22;58645;43.068;25.610;2023-02-26T06:28:44;14.70;76.90
70986;DHT22;58645;43.068;25.610;2023-02-26T06:31:10;14.80;77.20
70986;DHT22;58645;43.068;25.610;2023-02-26T06:33:36;14.80;77.60
70986;DHT22;58645;43.068;25.610;2023-02-26T06:36:02;14.80;78.20
70986;DHT22;58645;43.068;25.610;2023-02-26T06:38:28;14.80;78.50
70986;DHT22;58645;43.068;25.610;2023-02-26T06:40:54;14.80;78.70
70986;DHT22;58645;43.068;25.610;2023-02-26T06:43:20;14.80;78.90
70986;DHT22;58645;43.068;25.610;2023-02-26T06:45:45;14.80;79.50
70986;DHT22;58645;43.068;25.610;2023-02-26T06:48:11;14.80;80.00
70986;DHT22;58645;43.068;25.610;2023-02-26T06:50:37;14.80;80.20
70986;DHT22;58645;43.068;25.610;2023-02-26T06:53:04;14.80;80.40
70986;DHT22;58645;43.068;25.610;2023-02-26T06:55:30;14.80;80.60
70986;DHT22;58645;43.068;25.610;2023-02-26T06:57:56;14.90;80.50
70986;DHT22;58645;43.068;25.610;2023-02-26T07:00:23;14.90;80.30
70986;DHT22;58645;43.068;25.610;2023-02-26T07:02:49;14.90;80.20
70986;DHT22;58645;43.068;25.610;2023-02-26T07:05:16;15.00;79.90
70986;DHT22;58645;43.068;25.610;2023-02-26T07:07:42;15.00;79.80
70986;DHT22;58645;43.068;25.610;2023-02-26T07:10:09;15.10;79.30
70986;DHT22;58645;43.068;25.610;2023-02-26T07:12:35;15.20;79.10
70986;DHT22;58645;43.068;25.610;2023-02-26T07:15:04;15.30;78.80
70986;DHT22;58645;43.068;25.610;2023-02-26T07:17:30;15.40;78.30
70986;DHT22;58645;43.068;25.610;2023-02-26T07:19:56;15.50;77.70
70986;DHT22;58645;43.068;25.610;2023-02-26T07:22:22;15.50;77.50
70986;DHT22;58645;43.068;25.610;2023-02-26T07:24:47;15.50;77.70
70986;DHT22;58645;43.068;25.610;2023-02-26T07:27:14;15.60;77.70
70986;DHT22;58645;43.068;25.610;2023-02-26T07:29:39;15.70;77.20
70986;DHT22;58645;43.068;25.610;2023-02-26T07:32:05;15.70;77.00
70986;DHT22;58645;43.068;25.610;2023-02-26T07:34:32;15.70;77.10
70986;DHT22;58645;43.068;25.610;2023-02-26T07:36:57;15.70;77.20
70986;DHT22;58645;43.068;25.610;2023-02-26T07:39:26;15.80;77.00
70986;DHT22;58645;43.068;25.610;2023-02-26T07:41:52;15.90;76.90
70986;DHT22;58645;43.068;25.610;2023-02-26T07:44:19;15.80;76.20
70986;DHT22;58645;43.068;25.610;2023-02-26T07:46:45;15.90;76.20
70986;DHT22;58645;43.068;25.610;2023-02-26T07:49:10;15.90;75.50
70986;DHT22;58645;43.068;25.610;2023-02-26T07:51:36;15.90;75.60
70986;DHT22;58645;43.068;25.610;2023-02-26T07:54:03;16.00;75.00
70986;DHT22;58645;43.068;25.610;2023-02-26T07:56:28;16.10;74.20
70986;DHT22;58645;43.068;25.610;2023-02-26T07:58:55;16.00;73.60
70986;DHT22;58645;43.068;25.610;2023-02-26T08:01:21;16.20;73.00
70986;DHT22;58645;43.068;25.610;2023-02-26T08:03:47;16.30;72.30
70986;DHT22;58645;43.068;25.610;2023-02-26T08:06:12;16.50;71.10
70986;DHT22;58645;43.068;25.610;2023-02-26T08:08:39;16.30;70.10
70986;DHT22;58645;43.068;25.610;2023-02-26T08:11:04;16.60;69.60
70986;DHT22;58645;43.068;25.610;2023-02-26T08:13:30;16.50;69.50
70986;DHT22;58645;43.068;25.610;2023-02-26T08:15:56;16.60;68.80
70986;DHT22;58645;43.068;25.610;2023-02-26T08:18:22;16.70;68.90
70986;DHT22;58645;43.068;25.610;2023-02-26T08:20:50;16.80;68.80
70986;DHT22;58645;43.068;25.610;2023-02-26T08:23:17;16.80;68.30
70986;DHT22;58645;43.068;25.610;2023-02-26T08:25:42;16.90;68.20
70986;DHT22;58645;43.068;25.610;2023-02-26T08:28:08;17.00;67.80
70986;DHT22;58645;43.068;25.610;2023-02-26T08:30:34;17.00;67.20
70986;DHT22;58645;43.068;25.610;2023-02-26T08:33:00;17.10;66.80
70986;DHT22;58645;43.068;25.610;2023-02-26T08:35:25;17.00;65.80
70986;DHT22;58645;43.068;25.610;2023-02-26T08:37:51;17.30;65.50
70986;DHT22;58645;43.068;25.610;2023-02-26T08:40:17;17.40;65.30
70986;DHT22;58645;43.068;25.610;2023-02-26T08:42:43;17.50;63.70
70986;DHT22;58645;43.068;25.610;2023-02-26T08:45:09;17.50;63.20
70986;DHT22;58645;43.068;25.610;2023-02-26T08:47:35;17.50;63.10
70986;DHT22;58645;43.068;25.610;2023-02-26T08:50:01;17.50;63.00
70986;DHT22;58645;43.068;25.610;2023-02-26T08:52:27;17.60;62.00
70986;DHT22;58645;43.068;25.610;2023-02-26T08:54:53;17.70;61.60
70986;DHT22;58645;43.068;25.610;2023-02-26T08:57:19;17.70;61.40
70986;DHT22;58645;43.068;25.610;2023-02-26T08:59:45;17.60;60.20
70986;DHT22;58645;43.068;25.610;2023-02-26T09:02:11;17.70;59.30
70986;DHT22;58645;43.068;25.610;2023-02-26T09:04:37;17.80;59.30
70986;DHT22;58645;43.068;25.610;2023-02-26T09:07:03;17.80;59.30
70986;DHT22;58645;43.068;25.610;2023-02-26T09:09:29;17.80;59.20
70986;DHT22;58645;43.068;25.610;2023-02-26T09:11:54;17.70;59.50
70986;DHT22;58645;43.068;25.610;2023-02-26T09:14:20;17.70;60.20
70986;DHT22;58645;43.068;25.610;2023-02-26T09:16:46;17.70;60.50
70986;DHT22;58645;43.068;25.610;2023-02-26T09:19:12;17.60;60.60
70986;DHT22;58645;43.068;25.610;2023-02-26T09:21:38;17.60;60.60
70986;DHT22;58645;43.068;25.610;2023-02-26T09:24:04;17.80;60.40
70986;DHT22;58645;43.068;25.610;2023-02-26T09:26:30;17.80;59.60
70986;DHT22;58645;43.068;25.610;2023-02-26T09:28:55;17.90;59.80
70986;DHT22;58645;43.068;25.610;2023-02-26T09:31:21;17.90;59.30
70986;DHT22;58645;43.068;25.610;2023-02-26T09:33:47;18.00;59.80
70986;DHT22;58645;43.068;25.610;2023-02-26T09:36:13;17.90;59.50
70986;DHT22;58645;43.068;25.610;2023-02-26T09:38:38;18.00;59.40
70986;DHT22;58645;43.068;25.610;2023-02-26T09:53:16;18.10;58.30
70986;DHT22;58645;43.068;25.610;2023-02-26T09:55:45;18.10;58.30
70986;DHT22;58645;43.068;25.610;2023-02-26T09:58:28;18.10;58.40
70986;DHT22;58645;43.068;25.610;2023-02-26T10:06:20;18.10;58.00
70986;DHT22;58645;43.068;25.610;2023-02-26T10:12:02;18.20;57.90
70986;DHT22;58645;43.068;25.610;2023-02-26T10:14:54;18.20;57.80
70986;DHT22;58645;43.068;25.610;2023-02-26T10:17:27;18.20;57.90
70986;DHT22;58645;43.068;25.610;2023-02-26T10:20:23;18.30;58.00
70986;DHT22;58645;43.068;25.610;2023-02-26T10:26:06;18.40;56.40
70986;DHT22;58645;43.068;25.610;2023-02-26T10:28:50;18.70;57.00
70986;DHT22;58645;43.068;25.610;2023-02-26T10:39:42;18.30;57.40
70986;DHT22;58645;43.068;25.610;2023-02-26T10:42:16;18.40;57.70
70986;DHT22;58645;43.068;25.610;2023-02-26T10:47:28;18.30;57.50
70986;DHT22;58645;43.068;25.610;2023-02-26T10:50:05;18.20;57.90
70986;DHT22;58645;43.068;25.610;2023-02-26T10:52:32;18.30;57.90
70986;DHT22;58645;43.068;25.610;2023-02-26T10:55:32;18.30;58.20
70986;DHT22;58645;43.068;25.610;2023-02-26T10:58:10;18.20;58.40
70986;DHT22;58645;43.068;25.610;2023-02-26T11:00:36;18.10;59.00
70986;DHT22;58645;43.068;25.610;2023-02-26T11:03:06;18.00;59.00
70986;DHT22;58645;43.068;25.610;2023-02-26T11:05:33;17.90;58.90
70986;DHT22;58645;43.068;25.610;2023-02-26T11:08:08;17.80;59.20
70986;DHT22;58645;43.068;25.610;2023-02-26T11:13:14;17.90;59.50
70986;DHT22;58645;43.068;25.610;2023-02-26T11:15:39;17.80;59.30
70986;DHT22;58645;43.068;25.610;2023-02-26T11:18:13;17.80;59.60
70986;DHT22;58645;43.068;25.610;2023-02-26T11:20:43;17.90;59.60
70986;DHT22;58645;43.068;25.610;2023-02-26T11:23:18;17.40;58.80
70986;DHT22;58645;43.068;25.610;2023-02-26T11:25:45;18.20;58.20
70986;DHT22;58645;43.068;25.610;2023-02-26T11:28:20;18.30;57.90
70986;DHT22;58645;43.068;25.610;2023-02-26T11:30:47;18.60;57.00
70986;DHT22;58645;43.068;25.610;2023-02-26T11:33:27;18.80;57.10
70986;DHT22;58645;43.068;25.610;2023-02-26T11:36:00;18.90;56.60
70986;DHT22;58645;43.068;25.610;2023-02-26T11:38:27;19.00;56.20
70986;DHT22;58645;43.068;25.610;2023-02-26T11:40:56;19.30;55.40
70986;DHT22;58645;43.068;25.610;2023-02-26T11:43:24;19.10;55.90
70986;DHT22;58645;43.068;25.610;2023-02-26T11:45:57;19.10;55.90
70986;DHT22;58645;43.068;25.610;2023-02-26T11:48:31;19.00;55.50
70986;DHT22;58645;43.068;25.610;2023-02-26T11:51:00;18.80;55.60
70986;DHT22;58645;43.068;25.610;2023-02-26T11:53:34;18.50;55.70
70986;DHT22;58645;43.068;25.610;2023-02-26T11:56:03;18.50;55.90
70986;DHT22;58645;43.068;25.610;2023-02-26T11:58:38;18.60;55.90
70986;DHT22;58645;43.068;25.610;2023-02-26T12:01:07;18.60;56.00
70986;DHT22;58645;43.068;25.610;2023-02-26T12:03:37;18.70;56.10
70986;DHT22;58645;43.068;25.610;2023-02-26T12:06:09;18.60;56.00
70986;DHT22;58645;43.068;25.610;2023-02-26T12:08:39;18.30;56.50
70986;DHT22;58645;43.068;25.610;2023-02-26T12:16:50;18.30;56.80
70986;DHT22;58645;43.068;25.610;2023-02-26T12:25:37;18.50;56.40
70986;DHT22;58645;43.068;25.610;2023-02-26T12:34:16;18.20;56.80
70986;DHT22;58645;43.068;25.610;2023-02-26T12:40:07;18.10;56.40
70986;DHT22;58645;43.068;25.610;2023-02-26T13:09:34;17.60;58.90
70986;DHT22;58645;43.068;25.610;2023-02-26T13:17:53;17.80;58.10
70986;DHT22;58645;43.068;25.610;2023-02-26T13:20:26;17.80;57.90
70986;DHT22;58645;43.068;25.610;2023-02-26T13:23:18;17.90;57.00
70986;DHT22;58645;43.068;25.610;2023-02-26T13:25:53;17.90;56.90
70986;DHT22;58645;43.068;25.610;2023-02-26T13:28:39;18.10;56.90
70986;DHT22;58645;43.068;25.610;2023-02-26T13:31:22;18.10;56.90
70986;DHT22;58645;43.068;25.610;2023-02-26T13:33:50;18.10;56.80
70986;DHT22;58645;43.068;25.610;2023-02-26T13:36:21;18.10;56.80
70986;DHT22;58645;43.068;25.610;2023-02-26T13:45:05;17.90;56.80
70986;DHT22;58645;43.068;25.610;2023-02-26T13:53:03;17.80;57.30
70986;DHT22;58645;43.068;25.610;2023-02-26T14:00:59;17.60;58.20
70986;DHT22;58645;43.068;25.610;2023-02-26T14:03:31;17.50;59.00
70986;DHT22;58645;43.068;25.610;2023-02-26T14:08:46;17.50;59.00
70986;DHT22;58645;43.068;25.610;2023-02-26T14:16:34;17.40;59.20
70986;DHT22;58645;43.068;25.610;2023-02-26T14:24:31;17.30;59.10
70986;DHT22;58645;43.068;25.610;2023-02-26T14:32:34;17.40;58.30
70986;DHT22;58645;43.068;25.610;2023-02-26T14:35:17;17.30;58.30
70986;DHT22;58645;43.068;25.610;2023-02-26T14:38:00;17.30;58.40
70986;DHT22;58645;43.068;25.610;2023-02-26T14:40:31;17.30;58.30
70986;DHT22;58645;43.068;25.610;2023-02-26T14:43:01;17.30;58.10
70986;DHT22;58645;43.068;25.610;2023-02-26T14:45:35;17.30;58.20
70986;DHT22;58645;43.068;25.610;2023-02-26T14:48:10;17.30;58.50
70986;DHT22;58645;43.068;25.610;2023-02-26T14:54:06;17.30;58.60
70986;DHT22;58645;43.068;25.610;2023-02-26T15:24:17;16.80;60.00
70986;DHT22;58645;43.068;25.610;2023-02-26T15:27:04;16.80;60.30
70986;DHT22;58645;43.068;25.610;2023-02-26T15:29:34;16.70;60.70
70986;DHT22;58645;43.068;25.610;2023-02-26T15:34:58;16.60;61.10
70986;DHT22;58645;43.068;25.610;2023-02-26T15:37:26;16.60;61.40
70986;DHT22;58645;43.068;25.610;2023-02-26T15:39:52;16.50;61.40
70986;DHT22;58645;43.068;25.610;2023-02-26T15:42:20;16.50;61.70
70986;DHT22;58645;43.068;25.610;2023-02-26T15:44:47;16.40;61.80
70986;DHT22;58645;43.068;25.610;2023-02-26T15:47:15;16.40;61.70
70986;DHT22;58645;43.068;25.610;2023-02-26T15:49:45;16.40;61.90
70986;DHT22;58645;43.068;25.610;2023-02-26T15:52:17;16.40;62.10
70986;DHT22;58645;43.068;25.610;2023-02-26T15:54:52;16.40;62.40
70986;DHT22;58645;43.068;25.610;2023-02-26T15:57:19;16.30;62.50
70986;DHT22;58645;43.068;25.610;2023-02-26T15:59:50;16.30;62.60
70986;DHT22;58645;43.068;25.610;2023-02-26T16:02:25;16.30;62.80
70986;DHT22;58645;43.068;25.610;2023-02-26T16:04:52;16.30;63.10
70986;DHT22;58645;43.068;25.610;2023-02-26T16:07:25;16.20;63.20
70986;DHT22;58645;43.068;25.610;2023-02-26T16:09:53;16.20;63.50
70986;DHT22;58645;43.068;25.610;2023-02-26T16:12:37;16.20;63.70
70986;DHT22;58645;43.068;25.610;2023-02-26T16:15:11;16.20;63.70
70986;DHT22;58645;43.068;25.610;2023-02-26T16:17:42;16.10;64.00
70986;DHT22;58645;43.068;25.610;2023-02-26T16:20:15;16.10;64.20
70986;DHT22;58645;43.068;25.610;2023-02-26T16:22:47;16.20;64.20
70986;DHT22;58645;43.068;25.610;2023-02-26T16:25:34;16.10;64.50
70986;DHT22;58645;43.068;25.610;2023-02-26T16:28:05;16.10;64.90
70986;DHT22;58645;43.068;25.610;2023-02-26T16:30:36;16.00;65.10
70986;DHT22;58645;43.068;25.610;2023-02-26T16:33:06;16.00;65.30
70986;DHT22;58645;43.068;25.610;2023-02-26T16:35:41;16.00;65.60
70986;DHT22;58645;43.068;25.610;2023-02-26T16:38:31;16.00;65.70
70986;DHT22;58645;43.068;25.610;2023-02-26T16:41:07;16.00;65.90
70986;DHT22;58645;43.068;25.610;2023-02-26T16:46:38;16.00;66.30
70986;DHT22;58645;43.068;25.610;2023-02-26T16:51:55;16.00;66.50
70986;DHT22;58645;43.068;25.610;2023-02-26T16:54:28;15.90;66.50
70986;DHT22;58645;43.068;25.610;2023-02-26T16:59:31;16.00;66.60
70986;DHT22;58645;43.068;25.610;2023-02-26T17:02:02;15.90;66.80
70986;DHT22;58645;43.068;25.610;2023-02-26T17:04:35;15.90;66.60
70986;DHT22;58645;43.068;25.610;2023-02-26T17:07:15;16.00;66.70
70986;DHT22;58645;43.068;25.610;2023-02-26T17:09:49;15.90;66.90
70986;DHT22;58645;43.068;25.610;2023-02-26T17:12:26;15.90;67.00
70986;DHT22;58645;43.068;25.610;2023-02-26T17:14:58;15.90;67.00
70986;DHT22;58645;43.068;25.610;2023-02-26T17:17:24;15.90;67.10
70986;DHT22;58645;43.068;25.610;2023-02-26T17:19:50;15.90;67.10
70986;DHT22;58645;43.068;25.610;2023-02-26T17:22:25;15.90;67.00
70986;DHT22;58645;43.068;25.610;2023-02-26T17:24:51;15.90;67.10
70986;DHT22;58645;43.068;25.610;2023-02-26T17:27:24;15.90;67.20
70986;DHT22;58645;43.068;25.610;2023-02-26T17:29:51;15.80;67.10
70986;DHT22;58645;43.068;25.610;2023-02-26T17:32:20;15.90;66.90
70986;DHT22;58645;43.068;25.610;2023-02-26T17:34:46;15.90;67.10
70986;DHT22;58645;43.068;25.610;2023-02-26T17:37:13;15.90;67.20
70986;DHT22;58645;43.068;25.610;2023-02-26T17:39:40;15.90;67.30
70986;DHT22;58645;43.068;25.610;2023-02-26T17:42:16;15.90;67.30
70986;DHT22;58645;43.068;25.610;2023-02-26T17:44:44;15.80;67.50
70986;DHT22;58645;43.068;25.610;2023-02-26T17:47:22;15.80;67.80
70986;DHT22;58645;43.068;25.610;2023-02-26T17:49:48;15.80;67.50
70986;DHT22;58645;43.068;25.610;2023-02-26T17:52:14;15.80;67.50
70986;DHT22;58645;43.068;25.610;2023-02-26T17:54:40;15.70;67.60
70986;DHT22;58645;43.068;25.610;2023-02-26T17:57:08;15.80;67.20
70986;DHT22;58645;43.068;25.610;2023-02-26T17:59:36;15.80;67.20
70986;DHT22;58645;43.068;25.610;2023-02-26T18:02:18;15.80;67.50
70986;DHT22;58645;43.068;25.610;2023-02-26T18:04:45;15.80;67.50
70986;DHT22;58645;43.068;25.610;2023-02-26T18:07:16;15.80;67.40
70986;DHT22;58645;43.068;25.610;2023-02-26T18:09:43;15.80;67.50
70986;DHT22;58645;43.068;25.610;2023-02-26T18:12:19;15.80;67.40
70986;DHT22;58645;43.068;25.610;2023-02-26T18:14:46;15.80;67.60
70986;DHT22;58645;43.068;25.610;2023-02-26T18:17:14;15.80;67.60
70986;DHT22;58645;43.068;25.610;2023-02-26T18:19:41;15.80;67.80
70986;DHT22;58645;43.068;25.610;2023-02-26T18:22:12;15.80;67.90
70986;DHT22;58645;43.068;25.610;2023-02-26T18:24:38;15.80;68.20
70986;DHT22;58645;43.068;25.610;2023-02-26T18:27:05;15.70;68.50
70986;DHT22;58645;43.068;25.610;2023-02-26T18:29:31;15.70;68.80
70986;DHT22;58645;43.068;25.610;2023-02-26T18:31:57;15.70;68.80
70986;DHT22;58645;43.068;25.610;2023-02-26T18:34:25;15.70;69.00
70986;DHT22;58645;43.068;25.610;2023-02-26T18:36:51;15.70;69.10
70986;DHT22;58645;43.068;25.610;2023-02-26T18:39:16;15.70;69.10
70986;DHT22;58645;43.068;25.610;2023-02-26T18:41:45;15.30;69.00
70986;DHT22;58645;43.068;25.610;2023-02-26T18:44:11;15.70;69.20
70986;DHT22;58645;43.068;25.610;2023-02-26T18:46:37;15.70;69.30
70986;DHT22;58645;43.068;25.610;2023-02-26T18:49:09;15.70;69.30
70986;DHT22;58645;43.068;25.610;2023-02-26T18:51:39;15.60;69.50
70986;DHT22;58645;43.068;25.610;2023-02-26T18:54:05;15.60;69.90
70986;DHT22;58645;43.068;25.610;2023-02-26T18:56:31;15.60;69.90
70986;DHT22;58645;43.068;25.610;2023-02-26T18:58:57;15.60;70.20
70986;DHT22;58645;43.068;25.610;2023-02-26T19:01:23;15.60;70.40
70986;DHT22;58645;43.068;25.610;2023-02-26T19:03:49;15.60;70.50
70986;DHT22;58645;43.068;25.610;2023-02-26T19:06:14;15.50;70.80
70986;DHT22;58645;43.068;25.610;2023-02-26T19:08:40;15.50;71.00
70986;DHT22;58645;43.068;25.610;2023-02-26T19:11:06;15.50;71.10